createdAt,value
2024-02-16T00:00:19.977Z,97203.41
2024-02-16T00:03:13.105Z,97206.72
2024-02-16T00:05:47.534Z,97210.84
2024-02-16T00:08:16.481Z,97205.75
2024-02-16T00:10:45.937Z,97199.06
2024-02-16T00:13:14.315Z,97201.50
2024-02-16T00:15:43.315Z,97202.97
2024-02-16T00:18:11.820Z,97206.59
2024-02-16T00:20:39.852Z,97200.03
2024-02-16T00:23:09.406Z,97195.47
2024-02-16T00:25:37.956Z,97203.50
2024-02-16T00:28:07.081Z,97205.50
2024-02-16T00:30:35.447Z,97202.34
2024-02-16T00:33:04.110Z,97197.59
2024-02-16T00:35:34.586Z,97195.63
2024-02-16T00:38:03.267Z,97193.16
2024-02-16T00:40:36.161Z,97197.06
2024-02-16T00:43:06.247Z,97194.00
2024-02-16T00:45:35.291Z,97200.69
2024-02-16T00:48:05.190Z,97201.03
2024-02-16T00:50:33.394Z,97207.59
2024-02-16T00:53:01.629Z,97201.09
2024-02-16T00:55:29.839Z,97195.31
2024-02-16T00:58:00.577Z,97200.75
2024-02-16T01:00:29.383Z,97198.91
2024-02-16T01:02:57.601Z,97201.88
2024-02-16T01:05:25.970Z,97196.13
2024-02-16T01:07:54.696Z,97198.44
2024-02-16T01:10:22.997Z,97194.66
2024-02-16T01:12:53.195Z,97195.16
2024-02-16T01:18:46.937Z,97192.53
2024-02-16T01:22:06.409Z,97186.69
2024-02-16T01:25:00.602Z,97188.94
2024-02-16T01:27:29.890Z,97191.28
2024-02-16T01:29:58.276Z,97182.09
2024-02-16T01:32:28.409Z,97175.88
2024-02-16T01:34:59.742Z,97182.75
2024-02-16T01:37:28.317Z,97176.56
2024-02-16T01:39:55.891Z,97177.88
2024-02-16T01:42:25.983Z,97173.00
2024-02-16T01:44:54.021Z,97169.56
2024-02-16T01:47:22.714Z,97160.88
2024-02-16T01:49:52.767Z,97159.69
2024-02-16T01:52:21.153Z,97164.13
2024-02-16T01:54:49.902Z,97165.47
2024-02-16T01:57:18.097Z,97153.88
2024-02-16T01:59:46.980Z,97160.22
2024-02-16T02:02:15.376Z,97157.97
2024-02-16T02:04:43.735Z,97161.22
2024-02-16T02:07:18.443Z,97170.69
2024-02-16T02:09:46.866Z,97167.25
2024-02-16T02:12:15.012Z,97158.09
2024-02-16T02:14:43.401Z,97161.53
2024-02-16T02:17:12.245Z,97163.66
2024-02-16T02:19:40.982Z,97154.66
2024-02-16T02:22:17.206Z,97149.41
2024-02-16T02:24:45.646Z,97148.13
2024-02-16T02:27:15.101Z,97145.66
2024-02-16T02:29:43.503Z,97146.47
2024-02-16T02:32:11.856Z,97141.59
2024-02-16T02:34:41.242Z,97150.75
2024-02-16T02:37:10.115Z,97139.47
2024-02-16T02:39:39.960Z,97138.28
2024-02-16T02:42:10.594Z,97138.63
2024-02-16T02:44:38.930Z,97139.59
2024-02-16T02:47:08.233Z,97130.47
2024-02-16T02:49:37.965Z,97140.91
2024-02-16T02:52:08.010Z,97138.97
2024-02-16T02:54:36.472Z,97135.69
2024-02-16T02:57:06.665Z,97139.28
2024-02-16T02:59:36.293Z,97140.59
2024-02-16T03:02:04.542Z,97141.25
2024-02-16T03:04:34.844Z,97137.63
2024-02-16T03:07:04.153Z,97149.25
2024-02-16T03:09:32.581Z,97143.03
2024-02-16T03:12:01.297Z,97144.66
2024-02-16T03:14:30.750Z,97140.59
2024-02-16T03:16:58.756Z,97144.19
2024-02-16T03:19:27.542Z,97142.88
2024-02-16T03:21:55.595Z,97142.72
2024-02-16T03:24:23.812Z,97132.91
2024-02-16T03:26:51.891Z,97136.19
2024-02-16T03:29:20.157Z,97134.22
2024-02-16T03:31:49.562Z,97138.63
2024-02-16T03:34:18.253Z,97141.56
2024-02-16T03:36:46.651Z,97145.00
2024-02-16T03:39:21.283Z,97142.56
2024-02-16T03:41:50.307Z,97142.91
2024-02-16T03:44:18.437Z,97139.59
2024-02-16T03:46:46.533Z,97134.06
2024-02-16T03:49:16.485Z,97136.50
2024-02-16T03:51:44.953Z,97141.91
2024-02-16T03:54:13.186Z,97136.69
2024-02-16T03:56:41.225Z,97144.19
2024-02-16T03:59:11.038Z,97134.06
2024-02-16T04:01:40.158Z,97135.84
2024-02-16T04:04:08.330Z,97135.69
2024-02-16T04:06:38.045Z,97139.94
2024-02-16T04:09:07.762Z,97130.13
2024-02-16T04:11:36.853Z,97136.19
2024-02-16T04:14:06.472Z,97132.75
2024-02-16T04:16:35.802Z,97127.81
2024-02-16T04:19:04.349Z,97131.13
2024-02-16T04:21:32.914Z,97128.16
2024-02-16T04:24:03.398Z,97135.66
2024-02-16T04:26:32.018Z,97138.56
2024-02-16T04:29:00.114Z,97139.25
2024-02-16T04:31:28.674Z,97142.13
2024-02-16T04:33:56.706Z,97144.28
2024-02-16T04:36:24.948Z,97143.13
2024-02-16T04:38:54.025Z,97139.53
2024-02-16T04:41:23.724Z,97142.50
2024-02-16T04:43:51.912Z,97141.53
2024-02-16T04:46:20.695Z,97134.03
2024-02-16T04:48:49.565Z,97136.81
2024-02-16T04:51:18.812Z,97129.47
2024-02-16T04:53:47.500Z,97125.88
2024-02-16T04:56:15.629Z,97123.59
2024-02-16T04:58:47.084Z,97129.00
2024-02-16T05:01:15.424Z,97129.47
2024-02-16T05:03:44.711Z,97131.75
2024-02-16T05:06:14.186Z,97126.53
2024-02-16T05:08:42.658Z,97128.97
2024-02-16T05:11:11.243Z,97130.78
2024-02-16T05:13:40.840Z,97135.34
2024-02-16T05:16:13.039Z,97134.22
2024-02-16T05:18:42.246Z,97137.00
2024-02-16T05:21:11.125Z,97137.47
2024-02-16T05:23:39.239Z,97134.06
2024-02-16T05:26:07.292Z,97136.03
2024-02-16T05:28:36.124Z,97141.75
2024-02-16T05:31:18.744Z,97136.69
2024-02-16T05:33:49.979Z,97134.06
2024-02-16T05:36:22.201Z,97134.88
2024-02-16T05:38:51.484Z,97137.31
2024-02-16T05:41:20.057Z,97134.22
2024-02-16T05:43:49.896Z,97134.88
2024-02-16T05:46:20.300Z,97144.03
2024-02-16T05:48:48.662Z,97134.72
2024-02-16T05:51:16.880Z,97141.56
2024-02-16T05:53:46.651Z,97146.63
2024-02-16T05:56:15.218Z,97142.72
2024-02-16T05:58:43.519Z,97141.25
2024-02-16T06:01:14.029Z,97138.28
2024-02-16T06:03:45.797Z,97138.97
2024-02-16T06:06:14.750Z,97143.53
2024-02-16T06:08:43.421Z,97138.47
2024-02-16T06:11:11.841Z,97134.72
2024-02-16T06:13:40.672Z,97141.44
2024-02-16T06:16:10.402Z,97136.81
2024-02-16T06:18:39.003Z,97134.72
2024-02-16T06:21:09.144Z,97144.03
2024-02-16T06:23:37.136Z,97141.91
2024-02-16T06:26:05.629Z,97147.31
2024-02-16T06:28:33.692Z,97149.09
2024-02-16T06:31:02.011Z,97157.31
2024-02-16T06:33:30.149Z,97154.16
2024-02-16T06:35:59.714Z,97155.50
2024-02-16T06:38:57.876Z,97166.94
2024-02-16T06:41:28.554Z,97162.53
2024-02-16T06:43:57.033Z,97153.34
2024-02-16T06:46:25.978Z,97157.59
2024-02-16T06:48:57.669Z,97155.34
2024-02-16T06:51:27.677Z,97154.97
2024-02-16T06:53:57.850Z,97164.81
2024-02-16T06:56:26.751Z,97163.50
2024-02-16T06:58:55.188Z,97166.13
2024-02-16T07:01:23.881Z,97149.41
2024-02-16T07:03:52.242Z,97150.56
2024-02-16T07:06:20.557Z,97151.69
2024-02-16T07:08:48.803Z,97152.19
2024-02-16T07:11:19.999Z,97151.00
2024-02-16T07:13:48.076Z,97154.09
2024-02-16T07:16:16.536Z,97151.31
2024-02-16T07:18:45.252Z,97153.63
2024-02-16T07:21:13.757Z,97152.94
2024-02-16T07:23:41.877Z,97161.63
2024-02-16T07:26:11.695Z,97154.72
2024-02-16T07:28:41.514Z,97160.75
2024-02-16T07:31:10.401Z,97155.16
2024-02-16T07:33:39.251Z,97168.09
2024-02-16T07:36:08.279Z,97151.84
2024-02-16T07:38:37.822Z,97154.78
2024-02-16T07:41:09.518Z,97148.16
2024-02-16T07:43:40.310Z,97150.13
2024-02-16T07:46:10.202Z,97143.88
2024-02-16T07:48:38.279Z,97145.13
2024-02-16T07:51:07.055Z,97154.34
2024-02-16T07:53:35.590Z,97152.97
2024-02-16T07:56:03.827Z,97144.78
2024-02-16T07:58:32.818Z,97136.19
2024-02-16T08:01:01.130Z,97137.78
2024-02-16T08:03:30.943Z,97130.69
2024-02-16T08:05:59.413Z,97127.06
2024-02-16T08:08:28.400Z,97126.38
2024-02-16T08:10:57.088Z,97135.56
2024-02-16T08:13:24.204Z,97140.72
2024-02-16T08:15:53.367Z,97127.75
2024-02-16T08:18:21.788Z,97139.88
2024-02-16T08:20:53.118Z,97134.88
2024-02-16T08:23:22.634Z,97137.72
2024-02-16T08:25:50.798Z,97139.38
2024-02-16T08:28:18.970Z,97130.53
2024-02-16T08:30:47.324Z,97121.88
2024-02-16T08:33:15.503Z,97130.41
2024-02-16T08:35:44.237Z,97132.47
2024-02-16T08:38:16.298Z,97120.69
2024-02-16T08:40:44.844Z,97119.00
2024-02-16T08:43:12.783Z,97124.38
2024-02-16T08:45:42.924Z,97129.19
2024-02-16T08:48:12.607Z,97128.34
2024-02-16T08:50:40.655Z,97137.06
2024-02-16T08:53:11.665Z,97134.84
2024-02-16T08:55:41.204Z,97129.84
2024-02-16T08:58:10.090Z,97129.09
2024-02-16T09:00:39.008Z,97130.00
2024-02-16T09:03:10.020Z,97127.16
2024-02-16T09:05:38.481Z,97127.06
2024-02-16T09:08:07.953Z,97134.59
2024-02-16T09:10:38.475Z,97122.50
2024-02-16T09:13:10.501Z,97112.91
2024-02-16T09:15:39.501Z,97119.59
2024-02-16T09:18:08.341Z,97113.75
2024-02-16T09:20:36.635Z,97118.72
2024-02-16T09:23:05.426Z,97120.72
2024-02-16T09:25:33.945Z,97136.75
2024-02-16T09:28:02.348Z,97137.94
2024-02-16T09:30:31.921Z,97144.41
2024-02-16T09:33:00.027Z,97150.47
2024-02-16T09:35:28.435Z,97157.34
2024-02-16T09:37:58.871Z,97149.03
2024-02-16T09:40:27.639Z,97144.22
2024-02-16T09:42:55.593Z,97140.22
2024-02-16T09:45:26.010Z,97131.53
2024-02-16T09:48:03.551Z,97130.84
2024-02-16T09:50:35.944Z,97137.81
2024-02-16T09:53:06.721Z,97134.47
2024-02-16T09:55:35.333Z,97138.66
2024-02-16T09:58:06.637Z,97138.53
2024-02-16T10:00:35.065Z,97134.84
2024-02-16T10:03:06.531Z,97152.28
2024-02-16T10:05:34.584Z,97151.88
2024-02-16T10:08:27.646Z,97139.31
2024-02-16T10:11:03.796Z,97140.38
2024-02-16T10:13:33.527Z,97137.88
2024-02-16T10:16:13.136Z,97132.50
2024-02-16T10:18:42.948Z,97142.44
2024-02-16T10:21:11.545Z,97146.81
2024-02-16T10:23:43.929Z,97135.72
2024-02-16T10:26:12.795Z,97137.88
2024-02-16T10:28:43.305Z,97141.44
2024-02-16T10:31:11.995Z,97139.25
2024-02-16T10:33:40.518Z,97157.50
2024-02-16T10:36:11.577Z,97157.00
2024-02-16T10:38:42.244Z,97144.63
2024-02-16T10:41:12.147Z,97142.91
2024-02-16T10:43:40.337Z,97143.25
2024-02-16T10:46:11.083Z,97135.97
2024-02-16T10:48:40.613Z,97131.72
2024-02-16T10:51:12.600Z,97126.44
2024-02-16T10:53:41.200Z,97129.88
2024-02-16T10:56:09.754Z,97133.13
2024-02-16T10:58:43.011Z,97122.81
2024-02-16T11:01:14.735Z,97124.31
2024-02-16T11:03:43.013Z,97119.94
2024-02-16T11:06:20.935Z,97120.28
2024-02-16T11:08:51.896Z,97119.47
2024-02-16T11:11:25.931Z,97110.56
2024-02-16T11:13:57.219Z,97112.56
2024-02-16T11:16:26.832Z,97123.44
2024-02-16T11:18:56.261Z,97112.38
2024-02-16T11:21:26.997Z,97113.75
2024-02-16T11:23:55.040Z,97113.78
2024-02-16T11:26:25.385Z,97112.47
2024-02-16T11:28:55.081Z,97112.47
2024-02-16T11:31:24.159Z,97116.22
2024-02-16T11:33:52.396Z,97105.56
2024-02-16T11:36:21.431Z,97099.56
2024-02-16T11:38:51.389Z,97095.94
2024-02-16T11:41:19.333Z,97090.91
2024-02-16T11:43:47.975Z,97087.72
2024-02-16T11:46:19.056Z,97093.91
2024-02-16T11:48:50.079Z,97099.59
2024-02-16T11:51:19.470Z,97098.41
2024-02-16T11:53:57.614Z,97108.50
2024-02-16T11:56:27.650Z,97104.47
2024-02-16T11:58:56.527Z,97106.44
2024-02-16T12:01:26.393Z,97106.88
2024-02-16T12:03:54.753Z,97095.69
2024-02-16T12:06:24.256Z,97098.66
2024-02-16T12:08:54.714Z,97088.91
2024-02-16T12:11:23.248Z,97094.41
2024-02-16T12:13:53.653Z,97095.53
2024-02-16T12:16:23.044Z,97088.56
2024-02-16T12:18:51.363Z,97096.31
2024-02-16T12:21:22.396Z,97082.94
2024-02-16T12:23:50.953Z,97086.38
2024-02-16T12:26:19.819Z,97091.66
2024-02-16T12:28:48.110Z,97105.31
2024-02-16T12:31:22.410Z,97098.25
2024-02-16T12:34:19.115Z,97097.09
2024-02-16T12:36:55.253Z,97103.75
2024-02-16T12:39:51.798Z,97103.59
2024-02-16T12:42:20.373Z,97106.81
2024-02-16T12:44:48.663Z,97106.50
2024-02-16T12:47:18.578Z,97101.72
2024-02-16T12:49:46.747Z,97107.28
2024-02-16T12:52:23.701Z,97107.97
2024-02-16T12:54:52.918Z,97101.25
2024-02-16T12:57:22.081Z,97098.97
2024-02-16T12:59:50.487Z,97103.38
2024-02-16T13:02:19.999Z,97097.66
2024-02-16T13:04:48.777Z,97110.97
2024-02-16T13:07:17.639Z,97117.44
2024-02-16T13:09:46.860Z,97106.41
2024-02-16T13:12:17.482Z,97106.41
2024-02-16T13:14:47.083Z,97104.78
2024-02-16T13:17:15.228Z,97102.81
2024-02-16T13:19:45.052Z,97100.81
2024-02-16T13:22:13.335Z,97099.38
2024-02-16T13:24:41.776Z,97102.09
2024-02-16T13:27:10.988Z,97109.09
2024-02-16T13:29:39.085Z,97125.78
2024-02-16T13:32:07.774Z,97118.38
2024-02-16T13:34:35.750Z,97111.34
2024-02-16T13:37:05.625Z,97128.28
2024-02-16T13:39:34.002Z,97114.91
2024-02-16T13:42:02.530Z,97114.31
2024-02-16T13:44:30.853Z,97111.53
2024-02-16T13:46:59.499Z,97110.56
2024-02-16T13:49:28.352Z,97109.75
2024-02-16T13:52:00.257Z,97112.19
2024-02-16T13:54:29.987Z,97118.06
2024-02-16T13:56:58.647Z,97103.63
2024-02-16T13:59:27.254Z,97097.19
2024-02-16T14:01:55.877Z,97092.56
2024-02-16T14:04:25.512Z,97097.53
2024-02-16T14:06:53.848Z,97104.63
2024-02-16T14:09:27.359Z,97093.13
2024-02-16T14:12:03.138Z,97108.63
2024-02-16T14:14:37.334Z,97098.38
2024-02-16T14:17:07.528Z,97092.72
2024-02-16T14:19:38.939Z,97097.19
2024-02-16T14:22:08.579Z,97102.53
2024-02-16T14:24:37.116Z,97108.72
2024-02-16T14:27:08.522Z,97099.38
2024-02-16T14:29:36.688Z,97106.63
2024-02-16T14:32:07.336Z,97109.91
2024-02-16T14:34:36.819Z,97107.00
2024-02-16T14:37:31.176Z,97105.63
2024-02-16T14:40:00.631Z,97112.78
2024-02-16T14:42:30.664Z,97106.06
2024-02-16T14:44:58.924Z,97099.06
2024-02-16T14:47:27.277Z,97099.78
2024-02-16T14:49:55.786Z,97095.88
2024-02-16T14:52:25.162Z,97098.69
2024-02-16T14:54:53.533Z,97100.38
2024-02-16T14:57:26.299Z,97107.28
2024-02-16T14:59:57.916Z,97102.88
2024-02-16T15:02:27.175Z,97103.78
2024-02-16T15:04:55.481Z,97106.44
2024-02-16T15:07:24.342Z,97103.19
2024-02-16T15:09:52.833Z,97103.84
2024-02-16T15:12:21.476Z,97110.84
2024-02-16T15:14:49.798Z,97102.22
2024-02-16T15:17:20.577Z,97099.00
2024-02-16T15:19:48.884Z,97106.72
2024-02-16T15:22:17.035Z,97110.50
2024-02-16T15:24:45.804Z,97113.41
2024-02-16T15:27:13.937Z,97116.53
2024-02-16T15:29:42.271Z,97120.69
2024-02-16T15:32:11.149Z,97123.84
2024-02-16T15:34:44.947Z,97120.97
2024-02-16T15:37:13.833Z,97124.50
2024-02-16T15:39:42.326Z,97127.00
2024-02-16T15:42:13.135Z,97132.53
2024-02-16T15:44:41.754Z,97129.91
2024-02-16T15:47:11.982Z,97134.28
2024-02-16T15:49:41.958Z,97129.34
2024-02-16T15:52:10.183Z,97141.50
2024-02-16T15:54:40.176Z,97141.97
2024-02-16T15:57:09.088Z,97141.88
2024-02-16T15:59:37.363Z,97145.88
2024-02-16T16:02:05.698Z,97142.97
2024-02-16T16:04:34.124Z,97144.38
2024-02-16T16:07:05.302Z,97151.47
2024-02-16T16:09:34.356Z,97151.72
2024-02-16T16:12:03.355Z,97153.09
2024-02-16T16:14:31.825Z,97163.81
2024-02-16T16:17:00.424Z,97164.97
2024-02-16T16:19:29.590Z,97155.25
2024-02-16T16:21:57.949Z,97159.09
2024-02-16T16:24:28.941Z,97155.56
2024-02-16T16:26:57.542Z,97153.81
2024-02-16T16:29:27.146Z,97154.19
2024-02-16T16:31:59.370Z,97160.81
2024-02-16T16:34:30.583Z,97169.31
2024-02-16T16:37:01.314Z,97179.94
2024-02-16T16:39:31.497Z,97174.25
2024-02-16T16:41:59.890Z,97188.28
2024-02-16T16:44:29.362Z,97172.88
2024-02-16T16:46:57.538Z,97174.97
2024-02-16T16:49:26.666Z,97181.84
2024-02-16T16:51:55.006Z,97175.97
2024-02-16T16:54:50.423Z,97189.13
2024-02-16T16:57:20.382Z,97181.75
2024-02-16T16:59:49.175Z,97182.03
2024-02-16T17:02:17.642Z,97194.38
2024-02-16T17:04:46.278Z,97194.19
2024-02-16T17:07:14.615Z,97186.72
2024-02-16T17:09:43.882Z,97198.00
2024-02-16T17:12:14.185Z,97192.19
2024-02-16T17:14:42.342Z,97195.53
2024-02-16T17:17:10.917Z,97200.53
2024-02-16T17:19:39.303Z,97193.81
2024-02-16T17:22:08.194Z,97198.06
2024-02-16T17:24:36.456Z,97199.06
2024-02-16T17:27:05.180Z,97199.16
2024-02-16T17:29:35.729Z,97197.44
2024-02-16T17:32:04.179Z,97204.59
2024-02-16T17:34:32.891Z,97199.88
2024-02-16T17:37:01.535Z,97203.06
2024-02-16T17:39:30.351Z,97205.81
2024-02-16T17:42:00.801Z,97199.97
2024-02-16T17:44:32.704Z,97208.06
2024-02-16T17:47:03.950Z,97206.06
2024-02-16T17:49:32.368Z,97215.75
2024-02-16T17:52:00.944Z,97218.22
2024-02-16T17:54:29.508Z,97218.22
2024-02-16T17:56:57.596Z,97223.56
2024-02-16T17:59:26.134Z,97228.19
2024-02-16T18:01:54.706Z,97222.94
2024-02-16T18:04:25.142Z,97237.25
2024-02-16T18:06:53.575Z,97231.91
2024-02-16T18:09:22.588Z,97248.50
2024-02-16T18:11:51.767Z,97234.44
2024-02-16T18:14:20.296Z,97238.31
2024-02-16T18:16:48.579Z,97233.91
2024-02-16T18:19:17.112Z,97242.16
2024-02-16T18:21:47.460Z,97232.72
2024-02-16T18:24:20.190Z,97239.41
2024-02-16T18:26:48.531Z,97236.97
2024-02-16T18:29:16.907Z,97233.97
2024-02-16T18:31:46.201Z,97238.31
2024-02-16T18:34:14.301Z,97234.63
2024-02-16T18:36:44.103Z,97229.47
2024-02-16T18:39:14.048Z,97237.16
2024-02-16T18:41:42.772Z,97241.50
2024-02-16T18:44:10.833Z,97238.78
2024-02-16T18:46:39.757Z,97243.16
2024-02-16T18:49:09.535Z,97247.50
2024-02-16T18:51:39.310Z,97238.91
2024-02-16T18:54:10.726Z,97251.31
2024-02-16T18:56:40.619Z,97255.69
2024-02-16T18:59:10.545Z,97254.22
2024-02-16T19:01:40.216Z,97250.84
2024-02-16T19:04:12.109Z,97246.78
2024-02-16T19:06:40.695Z,97252.31
2024-02-16T19:09:10.288Z,97241.00
2024-02-16T19:11:40.509Z,97247.16
2024-02-16T19:14:09.442Z,97251.84
2024-02-16T19:16:37.902Z,97255.59
2024-02-16T19:19:06.168Z,97248.59
2024-02-16T19:21:34.884Z,97252.41
2024-02-16T19:24:04.835Z,97245.50
2024-02-16T19:26:33.149Z,97244.16
2024-02-16T19:29:03.375Z,97246.25
2024-02-16T19:31:33.498Z,97249.59
2024-02-16T19:34:01.778Z,97244.34
2024-02-16T19:36:30.971Z,97243.06
2024-02-16T19:38:59.540Z,97247.25
2024-02-16T19:41:28.099Z,97253.31
2024-02-16T19:43:56.355Z,97252.84
2024-02-16T19:46:26.230Z,97257.31
2024-02-16T19:48:54.650Z,97261.47
2024-02-16T19:51:23.740Z,97266.63
2024-02-16T19:53:53.008Z,97268.22
2024-02-16T19:56:21.793Z,97270.38
2024-02-16T19:58:51.482Z,97260.56
2024-02-16T20:01:21.832Z,97273.81
2024-02-16T20:03:51.959Z,97275.44
2024-02-16T20:06:20.749Z,97272.56
2024-02-16T20:08:49.819Z,97276.16
2024-02-16T20:11:18.592Z,97271.38
2024-02-16T20:13:51.088Z,97273.81
2024-02-16T20:16:19.808Z,97285.25
2024-02-16T20:18:48.520Z,97283.97
2024-02-16T20:21:19.622Z,97280.97
2024-02-16T20:23:48.040Z,97287.88
2024-02-16T20:26:24.188Z,97282.41
2024-02-16T20:28:52.907Z,97296.47
2024-02-16T20:31:22.008Z,97303.84
2024-02-16T20:33:50.784Z,97311.34
2024-02-16T20:36:21.188Z,97306.75
2024-02-16T20:38:49.789Z,97310.63
2024-02-16T20:41:18.596Z,97310.09
2024-02-16T20:43:46.962Z,97310.78
2024-02-16T20:46:15.515Z,97316.97
2024-02-16T20:48:44.159Z,97319.31
2024-02-16T20:51:12.403Z,97317.88
2024-02-16T20:53:42.314Z,97319.69
2024-02-16T20:56:12.324Z,97324.47
2024-02-16T20:58:40.904Z,97325.47
2024-02-16T21:01:09.679Z,97313.31
2024-02-16T21:03:38.885Z,97317.13
2024-02-16T21:06:07.843Z,97312.69
2024-02-16T21:08:38.779Z,97317.47
2024-02-16T21:11:12.229Z,97317.84
2024-02-16T21:13:41.383Z,97318.16
2024-02-16T21:16:10.105Z,97319.06
2024-02-16T21:18:38.627Z,97322.69
2024-02-16T21:21:07.493Z,97319.59
2024-02-16T21:23:35.981Z,97321.88
2024-02-16T21:26:04.425Z,97325.41
2024-02-16T21:28:34.299Z,97325.78
2024-02-16T21:31:05.289Z,97327.41
2024-02-16T21:33:39.503Z,97324.25
2024-02-16T21:36:11.701Z,97328.69
2024-02-16T21:38:40.881Z,97330.31
2024-02-16T21:41:12.006Z,97326.06
2024-02-16T21:43:42.026Z,97323.09
2024-02-16T21:46:11.035Z,97331.31
2024-02-16T21:48:44.452Z,97334.50
2024-02-16T21:51:17.466Z,97335.38
2024-02-16T21:53:46.675Z,97330.13
2024-02-16T21:56:14.879Z,97337.34
2024-02-16T21:58:45.305Z,97338.34
2024-02-16T22:01:14.456Z,97335.03
2024-02-16T22:03:42.778Z,97333.56
2024-02-16T22:06:13.024Z,97336.38
2024-02-16T22:08:42.254Z,97336.03
2024-02-16T22:11:10.739Z,97330.28
2024-02-16T22:13:38.907Z,97331.25
2024-02-16T22:16:09.426Z,97337.34
2024-02-16T22:18:40.765Z,97343.25
2024-02-16T22:21:11.526Z,97340.25
2024-02-16T22:23:39.902Z,97344.88
2024-02-16T22:26:11.449Z,97337.28
2024-02-16T22:28:39.924Z,97339.75
2024-02-16T22:31:09.991Z,97341.88
2024-02-16T22:33:38.629Z,97340.25
2024-02-16T22:36:07.850Z,97345.34
2024-02-16T22:38:36.441Z,97347.03
2024-02-16T22:41:05.128Z,97343.88
2024-02-16T22:43:33.661Z,97347.16
2024-02-16T22:46:02.640Z,97349.97
2024-02-16T22:48:32.661Z,97348.34
2024-02-16T22:51:01.243Z,97351.47
2024-02-16T22:53:29.726Z,97355.44
2024-02-16T22:55:58.511Z,97361.97
2024-02-16T22:58:26.812Z,97361.66
2024-02-16T23:00:57.805Z,97348.66
2024-02-16T23:03:28.415Z,97344.06
2024-02-16T23:06:00.984Z,97345.81
2024-02-16T23:08:31.318Z,97351.41
2024-02-16T23:11:00.721Z,97357.31
2024-02-16T23:13:29.669Z,97357.41
2024-02-16T23:15:58.179Z,97358.25
2024-02-16T23:18:27.090Z,97360.34
2024-02-16T23:20:55.309Z,97357.91
2024-02-16T23:23:25.624Z,97359.06
2024-02-16T23:25:54.094Z,97352.63
2024-02-16T23:28:22.285Z,97360.22
2024-02-16T23:30:51.283Z,97354.16
2024-02-16T23:33:21.337Z,97361.84
2024-02-16T23:35:51.288Z,97363.16
2024-02-16T23:38:19.904Z,97363.16
2024-02-16T23:40:49.462Z,97360.94
2024-02-16T23:43:17.548Z,97365.47
2024-02-16T23:45:47.681Z,97362.59
2024-02-16T23:48:16.018Z,97364.97
2024-02-16T23:50:44.429Z,97370.41
2024-02-16T23:53:12.676Z,97365.41
2024-02-16T23:55:40.804Z,97367.13
2024-02-16T23:58:10.577Z,97368.41
